D/T METAR WX W/DIR W/SPE G/SPE TEMP DEWP
16/01/19 02:50 EGGP 160250Z 24013KT 9999 SCT022 BKN026 09/05 Q1005 WSW (240°) 15.0mph 9°C 5°C
16/01/19 02:20 EGGP 160220Z 24015KT 9999 SCT022 BKN026 10/05 Q1005 WSW (240°) 17.3mph 10°C 5°C
16/01/19 01:50 EGGP 160150Z 24017KT 9999 SCT022 BKN026 10/06 Q1006 WSW (240°) 19.6mph 10°C 6°C
16/01/19 01:20 EGGP 160120Z 20009KT 170V240 9999 SCT022 BKN026 09/06 Q1006 SSW (200°) 10.4mph 9°C 6°C
16/01/19 00:20 EGGP 160020Z 21010KT 9999 SCT022 BKN026 08/05 Q1007 SSW (210°) 11.5mph 8°C 5°C
15/01/19 23:50 EGGP 152350Z 21013KT 9999 SCT022 BKN026 09/06 Q1007 SSW (210°) 15.0mph 9°C 6°C
15/01/19 23:20 EGGP 152320Z 21010KT 9999 SCT028 09/06 Q1008 SSW (210°) 11.5mph 9°C 6°C
15/01/19 22:50 EGGP 152250Z 22009KT 9999 SCT028 09/05 Q1008 SW (220°) 10.4mph 9°C 5°C
15/01/19 22:20 EGGP 152220Z 21009KT CAVOK 09/05 Q1009 SSW (210°) 10.4mph 9°C 5°C
15/01/19 21:50 EGGP 152150Z 22010KT 9999 OVC020 09/06 Q1009 SW (220°) 11.5mph 9°C 6°C
15/01/19 21:20 EGGP 152120Z 23011KT 9999 SCT022 BKN030 09/05 Q1010 SW (230°) 12.7mph 9°C 5°C
15/01/19 20:50 EGGP 152050Z 22008KT 9999 SCT025 08/04 Q1010 SW (220°) 9.2mph 8°C 4°C
15/01/19 20:20 EGGP 152020Z 22007KT 9999 BKN023 09/06 Q1010 SW (220°) 8.1mph 9°C 6°C
15/01/19 19:50 EGGP 151950Z 22007KT 9999 BKN020 09/06 Q1011 SW (220°) 8.1mph 9°C 6°C
15/01/19 19:20 EGGP 151920Z 24009KT 9999 SCT028 09/06 Q1011 WSW (240°) 10.4mph 9°C 6°C
15/01/19 18:50 EGGP 151850Z 24011KT 9999 SCT032 10/07 Q1011 WSW (240°) 12.7mph 10°C 7°C
15/01/19 18:20 EGGP 151820Z 23010KT 9999 SCT024 09/06 Q1012 SW (230°) 11.5mph 9°C 6°C
15/01/19 17:50 EGGP 151750Z 24007KT 9999 BKN020 09/06 Q1012 WSW (240°) 8.1mph 9°C 6°C
15/01/19 17:20 EGGP 151720Z 24007KT 9999 SCT021 08/05 Q1012 WSW (240°) 8.1mph 8°C 5°C
15/01/19 16:50 EGGP 151650Z 25011KT 9999 SCT029 09/05 Q1013 WSW (250°) 12.7mph 9°C 5°C
15/01/19 16:20 EGGP 151620Z 25011KT 9999 FEW028 09/05 Q1013 WSW (250°) 12.7mph 9°C 5°C
15/01/19 15:50 EGGP 151550Z 23007KT 9999 BKN027 09/05 Q1013 SW (230°) 8.1mph 9°C 5°C
15/01/19 15:20 EGGP 151520Z 23005KT 9999 FEW027 BKN029 09/05 Q1013 SW (230°) 5.8mph 9°C 5°C
15/01/19 14:50 EGGP 151450Z 23004KT 200V260 9999 BKN037 10/06 Q1014 SW (230°) 4.6mph 10°C 6°C
15/01/19 14:20 EGGP 151420Z 28009KT 9999 BKN037 09/05 Q1014 W (280°) 10.4mph 9°C 5°C
15/01/19 13:50 EGGP 151350Z 28009KT 9999 BKN033 10/06 Q1015 W (280°) 10.4mph 10°C 6°C
15/01/19 13:20 EGGP 151320Z 26004KT 9999 SCT030 BKN032 09/05 Q1015 W (260°) 4.6mph 9°C 5°C
15/01/19 12:50 EGGP 151250Z 25006KT 9999 SCT037 BKN039 10/05 Q1015 WSW (250°) 6.9mph 10°C 5°C
15/01/19 12:20 EGGP 151220Z 23007KT 9999 FEW036 BKN041 10/05 Q1016 SW (230°) 8.1mph 10°C 5°C
15/01/19 11:50 EGGP 151150Z 24008KT 9999 FEW032 BKN041 10/05 Q1016 WSW (240°) 9.2mph 10°C 5°C
15/01/19 11:20 EGGP 151120Z 23008KT 9999 BKN043 10/05 Q1016 SW (230°) 9.2mph 10°C 5°C
15/01/19 10:50 EGGP 151050Z 24008KT 9999 BKN042 09/05 Q1017 WSW (240°) 9.2mph 9°C 5°C
15/01/19 10:20 EGGP 151020Z 24009KT 9999 BKN045 09/05 Q1017 WSW (240°) 10.4mph 9°C 5°C
15/01/19 09:50 EGGP 150950Z 25009KT CAVOK 08/04 Q1017 WSW (250°) 10.4mph 8°C 4°C
15/01/19 09:20 EGGP 150920Z 26007KT CAVOK 09/05 Q1017 W (260°) 8.1mph 9°C 5°C
15/01/19 08:50 EGGP 150850Z 27004KT CAVOK 06/03 Q1017 W (270°) 4.6mph 6°C 3°C
15/01/19 08:20 EGGP 150820Z 27006KT CAVOK 07/04 Q1017 W (270°) 6.9mph 7°C 4°C
15/01/19 07:50 EGGP 150750Z 26003KT CAVOK 06/03 Q1016 W (260°) 3.5mph 6°C 3°C
15/01/19 07:20 EGGP 150720Z 23007KT 9999 SCT049 08/05 Q1016 SW (230°) 8.1mph 8°C 5°C
15/01/19 06:50 EGGP 150650Z 24009KT 9999 BKN047 08/04 Q1016 WSW (240°) 10.4mph 8°C 4°C
15/01/19 06:20 EGGP 150620Z 24007KT 9999 BKN047 09/05 Q1017 WSW (240°) 8.1mph 9°C 5°C
15/01/19 05:50 EGGP 150550Z 26009KT 9999 BKN046 09/04 Q1017 W (260°) 10.4mph 9°C 4°C
15/01/19 04:50 EGGP 150450Z 26009KT 9999 BKN045 09/04 Q1017 W (260°) 10.4mph 9°C 4°C
15/01/19 03:50 EGGP 150350Z AUTO 25008KT 9999 OVC037/// 08/05 Q1018 WSW (250°) 9.2mph 8°C 5°C
15/01/19 03:20 EGGP 150320Z AUTO 25009KT 9999 SCT032/// OVC037/// 09/05 Q1018 WSW (250°) 10.4mph 9°C 5°C
15/01/19 02:50 EGGP 150250Z AUTO 26010KT 9999 OVC032/// 08/05 Q1019 W (260°) 11.5mph 8°C 5°C
15/01/19 02:20 EGGP 150220Z 25008KT 9999 BKN037 08/05 Q1019 WSW (250°) 9.2mph 8°C 5°C
15/01/19 01:50 EGGP 150150Z 25008KT 9999 FEW021 BKN039 08/06 Q1019 WSW (250°) 9.2mph 8°C 6°C
15/01/19 01:20 EGGP 150120Z 25008KT 9999 BKN034 08/05 Q1020 WSW (250°) 9.2mph 8°C 5°C
15/01/19 00:50 EGGP 150050Z 25009KT 9999 BKN040 08/05 Q1020 WSW (250°) 10.4mph 8°C 5°C
14/01/19 23:50 EGGP 142350Z 25009KT 9999 BKN038 07/04 Q1020 WSW (250°) 10.4mph 7°C 4°C
14/01/19 23:20 EGGP 142320Z 25007KT 9999 SCT040 07/04 Q1020 WSW (250°) 8.1mph 7°C 4°C
14/01/19 22:20 EGGP 142220Z 24006KT 9999 BKN025 07/04 Q1021 WSW (240°) 6.9mph 7°C 4°C
14/01/19 21:50 EGGP 142150Z 26009KT 9999 BKN025 07/04 Q1021 W (260°) 10.4mph 7°C 4°C
14/01/19 20:50 EGGP 142050Z 25007KT 9999 FEW029 BKN032 07/03 Q1021 WSW (250°) 8.1mph 7°C 3°C
14/01/19 20:20 EGGP 142020Z 25009KT 9999 FEW029 BKN039 07/03 Q1021 WSW (250°) 10.4mph 7°C 3°C
14/01/19 19:50 EGGP 141950Z 25008KT 9999 FEW018 BKN035 07/04 Q1021 WSW (250°) 9.2mph 7°C 4°C
14/01/19 19:20 EGGP 141920Z 26009KT 9999 FEW018 SCT032 07/04 Q1021 W (260°) 10.4mph 7°C 4°C
14/01/19 18:50 EGGP 141850Z 26008KT 9999 FEW018 BKN043 07/04 Q1021 W (260°) 9.2mph 7°C 4°C
14/01/19 17:50 EGGP 141750Z 27006KT 9999 SCT016 BKN044 08/05 Q1022 W (270°) 6.9mph 8°C 5°C
14/01/19 17:20 EGGP 141720Z 27009KT 9999 FEW016 SCT020 BKN044 08/05 Q1022 W (270°) 10.4mph 8°C 5°C
14/01/19 16:50 EGGP 141650Z 27008KT 9999 BKN044 08/04 Q1022 W (270°) 9.2mph 8°C 4°C
14/01/19 16:20 EGGP 141620Z 29011KT 9999 SCT018 BKN042 08/05 Q1021 WNW (290°) 12.7mph 8°C 5°C
14/01/19 15:50 EGGP 141550Z 28009KT 9999 VCSH SCT018 BKN042 08/05 Q1022 VCSH W (280°) 10.4mph 8°C 5°C
14/01/19 15:20 EGGP 141520Z 30011KT 9999 VCSH FEW018 BKN041 09/05 Q1022 VCSH WNW (300°) 12.7mph 9°C 5°C
14/01/19 14:50 EGGP 141450Z 31011KT 9999 -SHRA FEW023 BKN035 08/04 Q1022 -SHRA NW (310°) 12.7mph 8°C 4°C
14/01/19 14:20 EGGP 141420Z 29013KT 9999 FEW020 BKN043 09/05 Q1022 WNW (290°) 15.0mph 9°C 5°C
14/01/19 13:50 EGGP 141350Z 29011KT 9999 SCT019 BKN048 09/04 Q1021 WNW (290°) 12.7mph 9°C 4°C
14/01/19 13:20 EGGP 141320Z 30012KT 9999 VCSH FEW021 BKN038 09/04 Q1021 VCSH WNW (300°) 13.8mph 9°C 4°C
14/01/19 12:50 EGGP 141250Z 31010KT 280V340 9999 VCSH FEW017 SCT038 08/04 Q1021 VCSH NW (310°) 11.5mph 8°C 4°C
14/01/19 12:20 EGGP 141220Z 32012KT 9999 VCSH FEW017 SCT021 09/05 Q1021 VCSH NW (320°) 13.8mph 9°C 5°C
14/01/19 11:50 EGGP 141150Z 31012KT 9999 VCSH SCT020 BKN032 09/05 Q1021 VCSH NW (310°) 13.8mph 9°C 5°C
14/01/19 11:20 EGGP 141120Z 31010KT 280V340 9999 VCSH SCT020 BKN032 08/04 Q1021 VCSH NW (310°) 11.5mph 8°C 4°C
14/01/19 10:50 EGGP 141050Z 31014KT 9999 VCSH BKN028 09/04 Q1021 VCSH NW (310°) 16.1mph 9°C 4°C
14/01/19 10:20 EGGP 141020Z 30011KT 9999 VCSH BKN029 08/03 Q1021 VCSH WNW (300°) 12.7mph 8°C 3°C
14/01/19 09:50 EGGP 140950Z 31011KT 280V340 9999 VCSH FEW018 BKN030 08/04 Q1021 VCSH NW (310°) 12.7mph 8°C 4°C
14/01/19 09:20 EGGP 140920Z 30009KT 280V340 9999 FEW018 BKN030 07/03 Q1021 WNW (300°) 10.4mph 7°C 3°C
14/01/19 08:50 EGGP 140850Z 30012KT 9999 SCT024 SCT037 07/04 Q1020 WNW (300°) 13.8mph 7°C 4°C
14/01/19 08:20 EGGP 140820Z 29013KT 9999 FEW017 SCT040 08/04 Q1020 WNW (290°) 15.0mph 8°C 4°C
14/01/19 07:50 EGGP 140750Z 30010KT 270V330 9999 BKN045 07/04 Q1020 WNW (300°) 11.5mph 7°C 4°C
14/01/19 07:20 EGGP 140720Z 29010KT 9999 VCSH FEW015 SCT020 BKN025 08/04 Q1019 VCSH WNW (290°) 11.5mph 8°C 4°C
14/01/19 06:50 EGGP 140650Z 31014KT 9999 VCSH FEW024 SCT034 BKN047 07/04 Q1019 VCSH NW (310°) 16.1mph 7°C 4°C
14/01/19 06:20 EGGP 140620Z 29018KT 9999 VCSH FEW018 BKN040 08/05 Q1018 VCSH WNW (290°) 20.7mph 8°C 5°C
14/01/19 05:50 EGGP 140550Z 29015G26KT 9999 BKN045 08/05 Q1018 WNW (290°) 17.3mph 29.9mph 8°C 5°C
14/01/19 05:20 EGGP 140520Z 30017KT 9999 FEW020 SCT034 08/05 Q1018 WNW (300°) 19.6mph 8°C 5°C
14/01/19 04:50 EGGP 140450Z 29019KT 9999 FEW020 SCT034 08/04 Q1018 WNW (290°) 21.9mph 8°C 4°C
14/01/19 04:20 EGGP 140420Z 30020G30KT 9999 SCT040 08/05 Q1017 WNW (300°) 23.0mph 34.5mph 8°C 5°C
14/01/19 03:50 EGGP 140350Z AUTO 29018KT 9999 FEW012/// BKN039/// BKN046/// 07/05 Q1018 RERA WNW (290°) 20.7mph 7°C 5°C
14/01/19 03:20 EGGP 140320Z AUTO 30017KT 9999 -RA FEW015/// BKN023/// BKN028/// 08/05 Q1017 RERA -RA WNW (300°) 19.6mph 8°C 5°C
14/01/19 02:50 EGGP 140250Z AUTO 29018KT 9999 FEW013/// SCT046/// 08/05 Q1017 WNW (290°) 20.7mph 8°C 5°C
14/01/19 02:20 EGGP 140220Z 30019KT 9999 FEW016 SCT028 08/04 Q1017 WNW (300°) 21.9mph 8°C 4°C
14/01/19 01:50 EGGP 140150Z 29018KT 9999 SCT028 07/04 Q1016 WNW (290°) 20.7mph 7°C 4°C
14/01/19 01:20 EGGP 140120Z 29017G28KT 9999 FEW027 BKN037 08/05 Q1016 WNW (290°) 19.6mph 32.2mph 8°C 5°C
14/01/19 00:50 EGGP 140050Z 30020KT 9999 VCSH SCT040 08/05 Q1015 VCSH WNW (300°) 23.0mph 8°C 5°C
14/01/19 00:20 EGGP 140020Z 30015KT 9999 -SHRA BKN036 08/05 Q1016 -SHRA WNW (300°) 17.3mph 8°C 5°C
13/01/19 23:50 EGGP 132350Z 30018G29KT 9999 VCSH FEW012 BKN038 09/05 Q1015 VCSH WNW (300°) 20.7mph 33.4mph 9°C 5°C
13/01/19 23:20 EGGP 132320Z 30020KT 9999 -SHRA FEW012 BKN038 08/04 Q1015 -SHRA WNW (300°) 23.0mph 8°C 4°C
13/01/19 22:50 EGGP 132250Z 30021KT 9999 VCSH FEW018 BKN037 08/04 Q1014 VCSH WNW (300°) 24.2mph 8°C 4°C
13/01/19 22:20 EGGP 132220Z 30020G30KT 9999 -SHRA FEW018 SCT032 08/04 Q1014 -SHRA WNW (300°) 23.0mph 34.5mph 8°C 4°C
13/01/19 21:50 EGGP 132150Z 31019KT 9999 -SHRA FEW030 SCT043 09/05 Q1014 RESHRA -SHRA NW (310°) 21.9mph 9°C 5°C
13/01/19 21:20 EGGP 132120Z 30020G30KT 9999 8000NW SHRA FEW018 SCT030 BKN039 07/04 Q1014 SHRA WNW (300°) 23.0mph 34.5mph 7°C 4°C
13/01/19 20:50 EGGP 132050Z 30021G31KT 9999 FEW029 SCT036 BKN044 09/04 Q1014 WNW (300°) 24.2mph 35.7mph 9°C 4°C
13/01/19 20:20 EGGP 132020Z 30021G31KT 9999 FEW028 SCT038 BKN047 09/04 Q1013 WNW (300°) 24.2mph 35.7mph 9°C 4°C
13/01/19 19:50 EGGP 131950Z 29021KT 9999 VCSH FEW029 SCT033 BKN038 10/05 Q1013 VCSH WNW (290°) 24.2mph 10°C 5°C
13/01/19 19:20 EGGP 131920Z 29021G32KT 9999 VCSH FEW029 BKN039 09/05 Q1013 VCSH WNW (290°) 24.2mph 36.8mph 9°C 5°C
13/01/19 18:50 EGGP 131850Z 30022KT 9999 VCSH FEW032 BKN039 09/04 Q1013 VCSH WNW (300°) 25.3mph 9°C 4°C
13/01/19 18:20 EGGP 131820Z 30022G32KT 9999 VCSH SCT034 BKN044 08/03 Q1012 VCSH WNW (300°) 25.3mph 36.8mph 8°C 3°C
13/01/19 17:50 EGGP 131750Z 30020KT 9999 -SHRA SCT021 SCT034 09/05 Q1012 RESHRA -SHRA WNW (300°) 23.0mph 9°C 5°C
13/01/19 16:50 EGGP 131650Z 30015KT 9999 VCSH FEW012 SCT024 BKN030 10/07 Q1012 VCSH WNW (300°) 17.3mph 10°C 7°C
13/01/19 16:20 EGGP 131620Z 29019KT 9999 -SHRA SCT016 BKN022CB BKN028 10/07 Q1012 -SHRA WNW (290°) 21.9mph 10°C 7°C
13/01/19 15:50 EGGP 131550Z 28022KT 9999 -SHRA FEW010 SCT023CB BKN034 10/07 Q1011 -SHRA W (280°) 25.3mph 10°C 7°C
13/01/19 15:20 EGGP 131520Z 28027KT 9999 8000E -SHRA FEW014 SCT023 BKN032 10/07 Q1011 RESHRA -SHRA W (280°) 31.1mph 10°C 7°C
13/01/19 14:50 EGGP 131450Z 28023KT 9999 VCSH SCT014 BKN046 10/07 Q1011 VCSH W (280°) 26.5mph 10°C 7°C
13/01/19 14:20 EGGP 131420Z 28025G37KT 9999 VCSH SCT014 SCT041 11/08 Q1011 VCSH W (280°) 28.8mph 42.6mph 11°C 8°C
13/01/19 13:50 EGGP 131350Z 28028G40KT 9999 FEW006 SCT012 11/08 Q1011 W (280°) 32.2mph 46.0mph 11°C 8°C
13/01/19 13:20 EGGP 131320Z 28028G39KT 9999 BKN012 11/08 Q1011 W (280°) 32.2mph 44.9mph 11°C 8°C
13/01/19 12:50 EGGP 131250Z 29025G38KT 9999 BKN012 11/08 Q1012 WNW (290°) 28.8mph 43.7mph 11°C 8°C
13/01/19 12:20 EGGP 131220Z 29024G36KT 9999 BKN013 11/08 Q1012 WNW (290°) 27.6mph 41.4mph 11°C 8°C
13/01/19 11:50 EGGP 131150Z 28024G34KT 9999 BKN012 11/08 Q1011 W (280°) 27.6mph 39.1mph 11°C 8°C
13/01/19 11:20 EGGP 131120Z 28026KT 9999 BKN011 10/08 Q1012 W (280°) 29.9mph 10°C 8°C
13/01/19 10:50 EGGP 131050Z 28027KT 9999 -RA BKN010 10/08 Q1012 -RA W (280°) 31.1mph 10°C 8°C
13/01/19 10:20 EGGP 131020Z 28025G36KT 9999 BKN010 10/08 Q1012 W (280°) 28.8mph 41.4mph 10°C 8°C
13/01/19 09:50 EGGP 130950Z 28025G36KT 9999 BKN012 10/07 Q1013 W (280°) 28.8mph 41.4mph 10°C 7°C
13/01/19 09:20 EGGP 130920Z 28023G34KT 9999 BKN013 10/07 Q1013 W (280°) 26.5mph 39.1mph 10°C 7°C
13/01/19 08:50 EGGP 130850Z 28025KT 9999 BKN013 10/07 Q1013 W (280°) 28.8mph 10°C 7°C
13/01/19 08:20 EGGP 130820Z 28023G33KT 9999 BKN013 10/07 Q1013 W (280°) 26.5mph 38.0mph 10°C 7°C
13/01/19 07:50 EGGP 130750Z 28021G31KT 9999 BKN013 10/07 Q1014 W (280°) 24.2mph 35.7mph 10°C 7°C
13/01/19 07:20 EGGP 130720Z 28022G32KT 9999 BKN013 09/06 Q1014 W (280°) 25.3mph 36.8mph 9°C 6°C
13/01/19 06:50 EGGP 130650Z 27025KT 9999 SCT013 BKN029 10/07 Q1014 W (270°) 28.8mph 10°C 7°C
13/01/19 05:50 EGGP 130550Z 27016KT 9999 BKN014 10/07 Q1015 W (270°) 18.4mph 10°C 7°C
13/01/19 05:20 EGGP 130520Z 27023KT 9999 BKN013 09/06 Q1015 W (270°) 26.5mph 9°C 6°C
13/01/19 04:50 EGGP 130450Z 27019KT 9999 BKN013 09/06 Q1015 W (270°) 21.9mph 9°C 6°C
13/01/19 04:20 EGGP 130420Z 27024KT 9999 BKN013 09/06 Q1016 W (270°) 27.6mph 9°C 6°C
13/01/19 03:50 EGGP 130350Z 27022KT 9999 BKN013 09/07 Q1016 W (270°) 25.3mph 9°C 7°C
13/01/19 03:20 EGGP 130320Z 27020KT 9999 BKN013 10/07 Q1016 W (270°) 23.0mph 10°C 7°C
13/01/19 02:50 EGGP 130250Z 27023KT 9999 BKN014 10/07 Q1016 W (270°) 26.5mph 10°C 7°C
13/01/19 02:20 EGGP 130220Z 28024G35KT 9999 BKN014 10/07 Q1017 W (280°) 27.6mph 40.3mph 10°C 7°C
13/01/19 01:50 EGGP 130150Z 28022KT 9999 BKN014 10/07 Q1017 W (280°) 25.3mph 10°C 7°C
13/01/19 01:20 EGGP 130120Z 28021G33KT 9999 BKN013 10/07 Q1017 W (280°) 24.2mph 38.0mph 10°C 7°C
13/01/19 00:50 EGGP 130050Z 28018G28KT 9999 BKN013 09/07 Q1018 W (280°) 20.7mph 32.2mph 9°C 7°C
13/01/19 00:20 EGGP 130020Z 28017G27KT 9999 BKN013 10/08 Q1018 W (280°) 19.6mph 31.1mph 10°C 8°C
12/01/19 23:50 EGGP 122350Z 29020KT 9999 SCT011 BKN013 10/07 Q1018 WNW (290°) 23.0mph 10°C 7°C
12/01/19 23:20 EGGP 122320Z 28023G33KT 9999 SCT011 BKN013 10/07 Q1018 W (280°) 26.5mph 38.0mph 10°C 7°C
12/01/19 22:50 EGGP 122250Z 28021KT 9999 SCT011 BKN013 11/08 Q1018 W (280°) 24.2mph 11°C 8°C